Time;durP1;ratioP1;P1;durP2;ratioP2;P2;SDS_P1;SDS_P2;PMS_P1;PMS_P2;Temp;Humidity;BMP_temperature;BMP_pressure;BME280_temperature;BME280_humidity;BME280_pressure;Samples;Min_cycle;Max_cycle;Signal;HPM_P1;HPM_P2
2023/08/13 00:00:33;;;;;;;10.68;3.25;;;17.20;99.90;;;;;;5025822;28;20472;-60
2023/08/13 00:02:59;;;;;;;13.68;3.70;;;17.20;99.90;;;;;;5006560;28;20078;-60
2023/08/13 00:05:25;;;;;;;11.25;3.47;;;17.20;99.90;;;;;;5003700;28;20403;-60
2023/08/13 00:07:51;;;;;;;14.75;3.75;;;17.20;99.90;;;;;;5003410;28;20038;-59
2023/08/13 00:10:17;;;;;;;12.45;3.38;;;17.20;99.90;;;;;;5002019;28;20191;-60
2023/08/13 00:12:42;;;;;;;14.55;3.22;;;17.20;99.90;;;;;;5025715;28;20042;-60
2023/08/13 00:15:10;;;;;;;14.27;3.75;;;17.30;99.90;;;;;;4999898;28;20511;-61
2023/08/13 00:17:36;;;;;;;14.43;3.10;;;17.30;99.90;;;;;;4996373;28;20041;-59
2023/08/13 00:20:02;;;;;;;11.57;3.53;;;17.30;99.90;;;;;;5026996;28;20060;-59
2023/08/13 00:22:29;;;;;;;14.13;3.40;;;17.30;99.90;;;;;;4988304;28;20041;-59
2023/08/13 00:24:55;;;;;;;8.55;3.17;;;17.30;99.90;;;;;;5017807;28;20030;-60
2023/08/13 00:27:21;;;;;;;10.73;3.40;;;17.30;99.90;;;;;;5009820;28;20471;-61
2023/08/13 00:29:46;;;;;;;9.57;2.95;;;17.30;99.90;;;;;;5007436;28;20063;-62
2023/08/13 00:32:12;;;;;;;14.68;3.58;;;17.30;99.90;;;;;;5028443;28;20041;-59
2023/08/13 00:34:38;;;;;;;12.32;4.35;;;17.30;99.90;;;;;;5017775;28;20099;-59
2023/08/13 00:37:04;;;;;;;13.98;3.55;;;17.30;99.90;;;;;;5014695;28;20040;-59
2023/08/13 00:39:29;;;;;;;11.05;3.63;;;17.30;99.90;;;;;;4996032;28;20037;-60
2023/08/13 00:41:55;;;;;;;14.15;3.38;;;17.30;99.90;;;;;;4989735;28;20037;-60
2023/08/13 00:44:21;;;;;;;10.50;3.50;;;17.30;99.90;;;;;;5009130;28;20038;-61
2023/08/13 00:46:47;;;;;;;13.82;4.05;;;17.30;99.90;;;;;;4999172;28;20091;-62
2023/08/13 00:49:14;;;;;;;14.52;4.05;;;17.30;99.90;;;;;;5007165;28;20041;-62
2023/08/13 00:51:40;;;;;;;14.93;3.75;;;17.30;99.90;;;;;;5006675;28;20183;-60
2023/08/13 00:54:07;;;;;;;10.82;3.58;;;17.20;99.90;;;;;;5026332;28;20123;-60
2023/08/13 00:56:34;;;;;;;10.10;3.63;;;17.20;99.90;;;;;;5021319;28;20782;-60
2023/08/13 00:59:00;;;;;;;20.50;3.88;;;17.20;99.90;;;;;;5007673;28;20037;-64
2023/08/13 01:01:26;;;;;;;11.00;3.80;;;17.10;99.90;;;;;;5008814;28;20065;-60
2023/08/13 01:03:52;;;;;;;15.23;3.85;;;17.10;99.90;;;;;;4985148;28;20071;-63
2023/08/13 01:06:43;;;;;;;9.90;3.25;;;17.00;99.90;;;;;;5006160;28;20057;-62
2023/08/13 01:09:32;;;;;;;9.82;3.15;;;17.00;99.90;;;;;;4988446;28;20042;-60
2023/08/13 01:12:27;;;;;;;18.63;4.50;;;17.00;99.90;;;;;;4999796;28;20515;-60
2023/08/13 01:15:12;;;;;;;12.55;3.20;;;17.00;99.90;;;;;;4993606;28;20128;-60
2023/08/13 01:17:39;;;;;;;14.98;4.30;;;17.00;99.90;;;;;;4983340;28;20041;-61
2023/08/13 01:20:08;;;;;;;21.05;3.80;;;16.90;99.90;;;;;;4979160;28;20075;-60
2023/08/13 01:22:38;;;;;;;10.68;3.03;;;17.00;99.90;;;;;;4989335;28;20076;-60
2023/08/13 01:25:09;;;;;;;13.68;3.92;;;16.90;99.90;;;;;;5005216;28;20125;-60
2023/08/13 01:27:48;;;;;;;10.45;3.42;;;16.90;99.90;;;;;;5006710;28;20372;-60
2023/08/13 01:30:29;;;;;;;11.73;3.40;;;16.90;99.90;;;;;;5005684;28;20046;-64
2023/08/13 01:33:00;;;;;;;15.48;3.60;;;16.80;99.90;;;;;;5016066;28;20451;-60
2023/08/13 01:35:26;;;;;;;16.33;3.90;;;16.90;99.90;;;;;;4992900;28;20045;-59
2023/08/13 01:37:54;;;;;;;14.45;4.05;;;16.80;99.90;;;;;;4989184;28;20249;-59
2023/08/13 01:40:19;;;;;;;15.05;3.90;;;16.80;99.90;;;;;;4992624;28;20077;-60
2023/08/13 01:42:45;;;;;;;15.68;3.88;;;16.80;99.90;;;;;;5005825;28;20072;-59
2023/08/13 01:45:11;;;;;;;15.13;4.30;;;16.70;99.90;;;;;;5010736;28;20117;-64
2023/08/13 01:47:37;;;;;;;14.63;3.72;;;16.70;99.90;;;;;;4990376;28;20030;-61
2023/08/13 01:50:03;;;;;;;14.48;4.00;;;16.70;99.90;;;;;;5020478;28;20038;-64
2023/08/13 01:52:28;;;;;;;13.88;3.90;;;16.70;99.90;;;;;;4996863;28;20049;-59
2023/08/13 01:54:54;;;;;;;13.23;3.92;;;16.60;99.90;;;;;;4983977;28;20594;-59
2023/08/13 01:57:20;;;;;;;12.52;4.18;;;16.60;99.90;;;;;;5017374;28;20495;-59
2023/08/13 01:59:45;;;;;;;12.48;3.60;;;16.60;99.90;;;;;;5018651;28;20492;-59
2023/08/13 02:02:11;;;;;;;13.07;3.63;;;16.60;99.90;;;;;;5028116;28;20044;-62
2023/08/13 02:04:37;;;;;;;17.65;4.28;;;16.60;99.90;;;;;;4993844;28;20042;-60
2023/08/13 02:07:02;;;;;;;16.45;3.92;;;16.60;99.90;;;;;;5013631;28;20034;-59
2023/08/13 02:09:28;;;;;;;17.90;3.90;;;16.60;99.90;;;;;;5020928;28;20137;-61
2023/08/13 02:11:54;;;;;;;14.23;4.03;;;16.60;99.90;;;;;;5023399;28;20030;-61
2023/08/13 02:14:20;;;;;;;15.60;4.18;;;16.50;99.90;;;;;;5011579;28;20060;-60
2023/08/13 02:16:45;;;;;;;12.68;3.60;;;16.50;99.90;;;;;;5020780;28;20042;-61
2023/08/13 02:19:11;;;;;;;15.27;4.63;;;16.50;99.90;;;;;;5031815;28;20041;-62
2023/08/13 02:21:37;;;;;;;14.00;4.50;;;16.50;99.90;;;;;;5018171;28;20041;-59
2023/08/13 02:24:02;;;;;;;15.82;4.05;;;16.50;99.90;;;;;;5025742;28;20052;-59
2023/08/13 02:26:28;;;;;;;13.30;4.10;;;16.50;99.90;;;;;;5015603;28;20392;-60
2023/08/13 02:28:54;;;;;;;12.68;4.40;;;16.50;99.90;;;;;;5007072;28;20480;-62
2023/08/13 02:31:19;;;;;;;14.82;4.03;;;16.40;99.90;;;;;;5004496;28;20104;-59
2023/08/13 02:33:45;;;;;;;13.65;4.38;;;16.40;99.90;;;;;;5020323;28;20029;-60
2023/08/13 02:36:10;;;;;;;18.35;4.55;;;16.40;99.90;;;;;;4999009;28;20037;-60
2023/08/13 02:38:36;;;;;;;13.65;4.25;;;16.50;99.90;;;;;;5027890;28;20048;-60
2023/08/13 02:41:02;;;;;;;16.00;4.07;;;16.40;99.90;;;;;;5023490;28;20037;-62
2023/08/13 02:43:31;;;;;;;14.55;4.38;;;16.40;99.90;;;;;;5011205;28;20384;-60
2023/08/13 02:45:57;;;;;;;12.43;4.00;;;16.40;99.90;;;;;;5000128;28;20041;-60
2023/08/13 02:48:22;;;;;;;14.40;4.05;;;16.40;99.90;;;;;;5015026;28;20456;-61
2023/08/13 02:50:48;;;;;;;11.02;3.60;;;16.40;99.90;;;;;;5019019;28;20041;-62
2023/08/13 02:53:13;;;;;;;16.42;4.75;;;16.40;99.90;;;;;;5024221;28;20512;-59
2023/08/13 02:55:39;;;;;;;12.18;4.03;;;16.30;99.90;;;;;;5023187;28;21030;-59
2023/08/13 02:58:05;;;;;;;18.33;4.25;;;16.30;99.90;;;;;;5030962;28;20170;-59
2023/08/13 03:00:30;;;;;;;14.02;4.53;;;16.30;99.90;;;;;;5026711;28;20041;-64
2023/08/13 03:02:56;;;;;;;11.13;3.90;;;16.30;99.90;;;;;;5032287;28;20038;-60
2023/08/13 03:05:21;;;;;;;14.88;3.97;;;16.20;99.90;;;;;;5020929;28;20366;-60
2023/08/13 03:07:47;;;;;;;16.05;4.65;;;16.20;99.90;;;;;;5019912;28;20066;-60
2023/08/13 03:10:13;;;;;;;15.27;4.13;;;16.20;99.90;;;;;;5022929;28;20068;-63
2023/08/13 03:12:38;;;;;;;13.80;4.05;;;16.20;99.90;;;;;;5003042;28;20488;-59
2023/08/13 03:15:05;;;;;;;15.20;4.55;;;16.20;99.90;;;;;;5002810;28;20038;-59
2023/08/13 03:17:30;;;;;;;12.70;4.15;;;16.10;99.90;;;;;;5020264;28;20237;-59
2023/08/13 03:19:57;;;;;;;14.88;4.20;;;16.10;99.90;;;;;;5019333;28;20124;-59
2023/08/13 03:22:23;;;;;;;12.35;4.22;;;16.10;99.90;;;;;;5006557;28;20048;-65
2023/08/13 03:24:48;;;;;;;13.57;3.60;;;16.10;99.90;;;;;;5028743;28;20120;-59
2023/08/13 03:27:14;;;;;;;10.45;3.72;;;16.10;99.90;;;;;;5002882;28;20041;-59
2023/08/13 03:29:40;;;;;;;14.40;4.18;;;16.10;99.90;;;;;;5024352;28;20076;-60
2023/08/13 03:32:05;;;;;;;15.13;4.45;;;16.00;99.90;;;;;;5015816;28;20030;-63
2023/08/13 03:34:31;;;;;;;14.70;3.85;;;16.00;99.90;;;;;;5007963;28;20041;-59
2023/08/13 03:36:57;;;;;;;19.33;4.60;;;16.00;99.90;;;;;;5022974;28;20565;-59
2023/08/13 03:39:22;;;;;;;17.50;4.40;;;16.00;99.90;;;;;;5032037;28;20041;-60
2023/08/13 03:41:48;;;;;;;10.45;3.90;;;16.00;99.90;;;;;;5006518;28;20080;-65
2023/08/13 03:44:13;;;;;;;12.25;4.00;;;16.00;99.90;;;;;;5016925;28;20562;-60
2023/08/13 03:46:39;;;;;;;18.58;3.92;;;16.00;99.90;;;;;;5004719;28;20060;-60
2023/08/13 03:49:04;;;;;;;15.55;4.53;;;16.00;99.90;;;;;;5018241;28;20041;-60
2023/08/13 03:51:30;;;;;;;12.20;4.28;;;15.90;99.90;;;;;;5021365;28;20045;-60
2023/08/13 03:53:56;;;;;;;9.85;3.83;;;16.00;99.90;;;;;;5031494;28;20046;-63
2023/08/13 03:56:23;;;;;;;14.23;4.78;;;15.90;99.90;;;;;;5026949;28;20190;-60
2023/08/13 03:58:48;;;;;;;15.73;4.05;;;15.90;99.90;;;;;;5020086;28;20117;-60
2023/08/13 04:01:14;;;;;;;16.98;3.88;;;15.90;99.90;;;;;;5019820;28;20113;-63
2023/08/13 04:03:40;;;;;;;14.25;4.20;;;15.90;99.90;;;;;;5043767;22;20636;-64
2023/08/13 04:06:05;;;;;;;13.00;3.67;;;15.90;99.90;;;;;;5024806;28;20033;-64
2023/08/13 04:08:34;;;;;;;13.00;3.88;;;15.90;99.90;;;;;;5040168;28;20053;-64
2023/08/13 04:11:01;;;;;;;14.48;4.35;;;15.90;99.90;;;;;;5042517;28;20136;-64
2023/08/13 04:13:27;;;;;;;15.60;4.15;;;15.80;99.90;;;;;;5030878;28;20124;-64
2023/08/13 04:15:53;;;;;;;11.73;4.40;;;15.90;99.90;;;;;;5042706;28;20037;-64
2023/08/13 04:18:18;;;;;;;15.18;4.38;;;15.80;99.90;;;;;;5034408;28;20503;-64
2023/08/13 04:20:44;;;;;;;10.32;4.10;;;15.90;99.90;;;;;;5047509;28;20045;-64
2023/08/13 04:23:10;;;;;;;10.07;4.03;;;15.80;99.90;;;;;;5039483;28;20029;-64
2023/08/13 04:25:35;;;;;;;22.80;4.03;;;15.80;99.90;;;;;;5033141;28;20510;-64
2023/08/13 04:28:02;;;;;;;11.65;3.72;;;15.80;99.90;;;;;;5030852;28;20045;-64
2023/08/13 04:30:28;;;;;;;11.75;4.10;;;15.80;99.90;;;;;;5035185;28;20398;-64
2023/08/13 04:32:55;;;;;;;13.77;3.97;;;15.80;99.90;;;;;;5030895;28;20034;-64
2023/08/13 04:35:24;;;;;;;13.80;3.50;;;15.80;99.90;;;;;;5033005;28;20108;-64
2023/08/13 04:37:51;;;;;;;12.65;3.88;;;15.80;99.90;;;;;;5041256;28;20048;-64
2023/08/13 04:40:17;;;;;;;12.13;3.55;;;15.80;99.90;;;;;;5039372;28;20479;-64
2023/08/13 04:42:42;;;;;;;10.73;3.97;;;15.80;99.90;;;;;;5022300;28;20120;-64
2023/08/13 04:45:09;;;;;;;9.45;3.53;;;15.90;99.90;;;;;;5046111;28;20071;-64
2023/08/13 04:47:34;;;;;;;10.07;3.80;;;15.90;99.90;;;;;;5034365;28;20081;-64
2023/08/13 04:50:00;;;;;;;11.90;3.72;;;15.80;99.90;;;;;;5046024;28;20083;-65
2023/08/13 04:52:26;;;;;;;15.32;4.28;;;15.90;99.90;;;;;;5032672;28;20067;-64
2023/08/13 04:54:51;;;;;;;14.68;4.30;;;15.90;99.90;;;;;;5034509;28;20042;-64
2023/08/13 04:57:17;;;;;;;12.80;4.15;;;15.90;99.90;;;;;;5028542;28;20381;-64
2023/08/13 04:59:42;;;;;;;15.68;4.15;;;15.90;99.90;;;;;;5038206;28;20040;-64
2023/08/13 05:02:08;;;;;;;12.20;3.92;;;15.80;99.90;;;;;;5039716;28;20487;-64
2023/08/13 05:04:34;;;;;;;13.60;4.40;;;15.90;99.90;;;;;;5041366;28;20459;-64
2023/08/13 05:06:59;;;;;;;14.38;4.38;;;15.80;99.90;;;;;;5039258;28;20037;-64
2023/08/13 05:09:25;;;;;;;13.13;4.25;;;15.80;99.90;;;;;;5024903;28;20041;-64
2023/08/13 05:11:51;;;;;;;13.00;4.38;;;15.80;99.90;;;;;;5038785;28;20055;-64
2023/08/13 05:14:17;;;;;;;12.32;4.22;;;15.90;99.90;;;;;;5040434;28;20107;-64
2023/08/13 05:16:42;;;;;;;12.38;4.13;;;15.90;99.90;;;;;;5039171;28;20403;-64
2023/08/13 05:19:08;;;;;;;12.75;4.13;;;15.90;99.90;;;;;;5033995;28;20037;-64
2023/08/13 05:21:33;;;;;;;10.32;3.78;;;15.90;99.90;;;;;;5041757;28;20059;-64
2023/08/13 05:23:59;;;;;;;13.63;4.25;;;15.90;99.90;;;;;;5042695;28;20044;-64
2023/08/13 05:26:25;;;;;;;14.90;4.85;;;15.90;99.90;;;;;;5040990;28;20037;-64
2023/08/13 05:28:50;;;;;;;9.95;3.95;;;16.00;99.90;;;;;;5036741;28;20040;-64
2023/08/13 05:31:16;;;;;;;14.07;4.47;;;16.00;99.90;;;;;;5033192;28;20103;-64
2023/08/13 05:33:42;;;;;;;9.75;3.97;;;16.00;99.90;;;;;;5029626;28;20044;-64
2023/08/13 05:36:07;;;;;;;18.92;5.10;;;16.00;99.90;;;;;;5040892;28;20087;-64
2023/08/13 05:38:33;;;;;;;12.27;3.78;;;16.00;99.90;;;;;;5031120;28;20046;-64
2023/08/13 05:40:59;;;;;;;16.60;4.50;;;16.00;99.90;;;;;;5038451;28;20029;-64
2023/08/13 05:43:24;;;;;;;14.13;4.75;;;16.00;99.90;;;;;;5032368;28;20090;-64
2023/08/13 05:45:50;;;;;;;9.98;4.03;;;16.00;99.90;;;;;;5044847;28;20044;-64
2023/08/13 05:48:16;;;;;;;9.77;4.20;;;16.00;99.90;;;;;;5038999;28;20430;-64
2023/08/13 05:50:41;;;;;;;16.25;4.68;;;16.00;99.90;;;;;;5029309;28;20490;-64
2023/08/13 05:53:07;;;;;;;12.07;4.22;;;16.10;99.90;;;;;;5042141;28;20075;-64
2023/08/13 05:55:33;;;;;;;13.88;5.07;;;16.10;99.90;;;;;;5033734;28;20490;-64
2023/08/13 05:57:58;;;;;;;11.65;4.40;;;16.10;99.90;;;;;;5040589;28;20045;-64
2023/08/13 06:00:24;;;;;;;12.95;4.70;;;16.10;99.90;;;;;;5034189;28;20552;-64
2023/08/13 06:02:49;;;;;;;17.00;4.50;;;16.00;99.90;;;;;;5037880;28;20037;-64
2023/08/13 06:05:15;;;;;;;18.88;4.43;;;16.10;99.90;;;;;;5036307;28;20045;-64
2023/08/13 06:07:41;;;;;;;19.40;5.13;;;16.10;99.90;;;;;;5021980;28;20037;-64
2023/08/13 06:10:07;;;;;;;15.48;4.85;;;16.20;99.90;;;;;;5035604;28;20057;-64
2023/08/13 06:12:33;;;;;;;17.25;5.72;;;16.20;99.90;;;;;;5038289;28;20064;-64
2023/08/13 06:14:59;;;;;;;14.63;4.93;;;16.20;99.90;;;;;;5024628;28;20087;-64
2023/08/13 06:17:25;;;;;;;18.73;4.57;;;16.30;99.90;;;;;;5032983;28;20029;-64
2023/08/13 06:19:51;;;;;;;13.68;4.40;;;16.30;99.90;;;;;;5013925;28;20148;-64
2023/08/13 06:22:18;;;;;;;17.02;4.60;;;16.40;99.90;;;;;;5033452;28;20052;-64
2023/08/13 06:24:43;;;;;;;15.00;4.55;;;16.40;99.90;;;;;;5027731;28;20069;-64
2023/08/13 06:27:09;;;;;;;12.80;4.30;;;16.50;99.90;;;;;;5021413;28;20075;-64
2023/08/13 06:29:35;;;;;;;10.65;4.30;;;16.50;99.90;;;;;;5037528;28;20037;-64
2023/08/13 06:32:00;;;;;;;13.07;4.10;;;16.60;99.90;;;;;;5031389;28;20068;-64
2023/08/13 06:34:26;;;;;;;13.00;4.32;;;16.70;99.90;;;;;;5028811;28;20042;-64
2023/08/13 06:36:53;;;;;;;14.40;4.28;;;16.70;99.90;;;;;;5040599;28;20303;-64
2023/08/13 06:39:19;;;;;;;13.07;4.22;;;16.80;99.90;;;;;;5027630;28;20118;-64
2023/08/13 06:41:45;;;;;;;15.15;4.75;;;16.90;99.90;;;;;;5035629;28;20562;-64
2023/08/13 06:44:20;;;;;;;15.50;4.32;;;17.00;99.90;;;;;;5027327;28;20045;-64
2023/08/13 06:46:49;;;;;;;12.88;4.80;;;17.10;99.90;;;;;;5029417;28;20427;-64
2023/08/13 06:49:15;;;;;;;12.25;4.35;;;17.10;99.90;;;;;;5031028;28;20446;-64
2023/08/13 06:51:41;;;;;;;11.70;4.60;;;17.10;99.90;;;;;;5041075;28;20042;-64
2023/08/13 06:54:07;;;;;;;13.88;4.40;;;17.10;99.90;;;;;;5031595;28;20044;-64
2023/08/13 06:56:35;;;;;;;11.75;4.15;;;17.10;99.90;;;;;;5035339;28;20033;-64
2023/08/13 06:59:01;;;;;;;13.35;4.43;;;17.20;99.90;;;;;;5035723;28;20056;-64
2023/08/13 07:01:27;;;;;;;13.57;3.97;;;17.20;99.90;;;;;;5004830;28;20053;-64
2023/08/13 07:03:53;;;;;;;14.15;3.80;;;17.20;99.90;;;;;;5031947;28;20050;-64
2023/08/13 07:06:18;;;;;;;12.68;3.72;;;17.30;99.90;;;;;;5025479;28;20088;-64
2023/08/13 07:08:44;;;;;;;11.75;4.07;;;17.30;99.90;;;;;;5036119;28;20128;-64
2023/08/13 07:11:10;;;;;;;14.88;4.47;;;17.30;99.90;;;;;;5032236;28;20431;-64
2023/08/13 07:13:36;;;;;;;13.45;4.25;;;17.30;99.90;;;;;;5018712;28;20051;-64
2023/08/13 07:16:01;;;;;;;16.63;4.07;;;17.40;99.90;;;;;;5033510;28;20041;-64
2023/08/13 07:18:27;;;;;;;9.57;3.78;;;17.40;99.90;;;;;;5031414;28;20045;-64
2023/08/13 07:20:53;;;;;;;13.38;4.35;;;17.50;99.90;;;;;;5024939;28;20030;-64
2023/08/13 07:23:18;;;;;;;14.23;3.65;;;17.50;99.90;;;;;;5029854;28;20045;-64
2023/08/13 07:25:44;;;;;;;13.65;4.50;;;17.60;99.90;;;;;;5036624;28;20568;-64
2023/08/13 07:28:10;;;;;;;13.20;4.15;;;17.60;99.90;;;;;;5031448;28;20076;-64
2023/08/13 07:30:35;;;;;;;12.05;4.40;;;17.70;99.90;;;;;;5031284;28;20046;-64
2023/08/13 07:33:01;;;;;;;12.25;3.83;;;17.70;99.90;;;;;;5029569;28;20026;-64
2023/08/13 07:35:27;;;;;;;14.32;4.43;;;17.80;99.90;;;;;;5035017;28;20191;-64
2023/08/13 07:37:52;;;;;;;13.45;4.30;;;17.80;99.90;;;;;;5033564;28;20049;-64
2023/08/13 07:40:18;;;;;;;13.13;4.22;;;17.80;99.90;;;;;;5033569;28;20064;-64
2023/08/13 07:42:44;;;;;;;11.57;3.90;;;17.90;99.90;;;;;;5033199;28;20487;-64
2023/08/13 07:45:10;;;;;;;13.65;4.25;;;18.00;99.90;;;;;;5026543;28;20056;-64
2023/08/13 07:47:36;;;;;;;11.85;4.13;;;18.10;99.90;;;;;;5032132;28;20083;-64
2023/08/13 07:50:04;;;;;;;14.43;4.03;;;18.10;99.90;;;;;;5027330;28;20037;-64
2023/08/13 07:52:31;;;;;;;13.73;4.10;;;18.30;99.90;;;;;;5031388;28;20499;-64
2023/08/13 07:54:57;;;;;;;16.42;4.00;;;18.40;99.90;;;;;;5028338;28;20148;-64
2023/08/13 07:57:23;;;;;;;13.80;4.28;;;18.50;99.90;;;;;;5032491;28;20098;-64
2023/08/13 07:59:49;;;;;;;14.90;3.88;;;18.60;99.90;;;;;;5031657;28;20026;-64
2023/08/13 08:02:15;;;;;;;13.40;3.60;;;18.60;99.90;;;;;;5026827;28;20036;-65
2023/08/13 08:04:42;;;;;;;13.85;4.07;;;18.70;99.90;;;;;;5028792;28;20033;-64
2023/08/13 08:07:07;;;;;;;14.18;3.40;;;18.70;99.90;;;;;;5035935;28;20036;-64
2023/08/13 08:09:33;;;;;;;9.95;3.50;;;18.80;99.90;;;;;;5035713;28;20060;-64
2023/08/13 08:11:59;;;;;;;11.43;3.47;;;18.90;99.90;;;;;;5032684;28;20026;-64
2023/08/13 08:14:24;;;;;;;11.75;3.30;;;18.90;99.90;;;;;;5032989;28;20121;-64
2023/08/13 08:16:54;;;;;;;8.65;3.03;;;18.90;99.90;;;;;;5035000;28;20033;-64
2023/08/13 08:19:20;;;;;;;13.35;3.50;;;18.90;99.90;;;;;;5021459;28;20529;-64
2023/08/13 08:21:45;;;;;;;11.27;3.28;;;18.90;99.90;;;;;;5032204;28;20045;-65
2023/08/13 08:24:11;;;;;;;12.20;3.42;;;19.00;99.90;;;;;;5032499;28;20037;-64
2023/08/13 08:26:40;;;;;;;11.18;3.05;;;19.10;99.90;;;;;;5030892;28;20033;-64
2023/08/13 08:29:05;;;;;;;12.32;3.13;;;19.10;99.90;;;;;;5030985;28;20555;-64
2023/08/13 08:31:31;;;;;;;8.23;2.80;;;19.20;99.90;;;;;;5038876;28;20041;-64
2023/08/13 08:33:56;;;;;;;11.25;2.90;;;19.20;99.90;;;;;;5032082;28;20567;-64
2023/08/13 08:36:22;;;;;;;8.48;2.80;;;19.30;99.90;;;;;;5035214;28;20037;-64
2023/08/13 08:38:48;;;;;;;11.20;2.67;;;19.50;99.90;;;;;;5029965;28;20081;-64
2023/08/13 08:41:15;;;;;;;8.68;3.08;;;19.60;99.90;;;;;;5028918;28;20519;-64
2023/08/13 08:43:42;;;;;;;13.27;2.83;;;19.70;99.90;;;;;;5036370;28;20086;-64
2023/08/13 08:46:11;;;;;;;10.15;2.75;;;19.90;99.90;;;;;;5036141;28;20095;-64
2023/08/13 08:48:39;;;;;;;9.00;2.50;;;20.10;99.90;;;;;;5033168;28;20046;-64
2023/08/13 08:51:06;;;;;;;9.48;2.83;;;20.30;99.90;;;;;;5030448;28;20030;-64
2023/08/13 08:53:34;;;;;;;10.75;2.90;;;20.50;99.90;;;;;;5036864;28;20152;-64
2023/08/13 08:55:59;;;;;;;12.98;2.90;;;20.70;99.90;;;;;;5019566;28;20042;-64
2023/08/13 08:58:25;;;;;;;11.52;3.10;;;20.80;99.90;;;;;;5017782;28;20052;-64
2023/08/13 09:00:56;;;;;;;11.00;3.08;;;21.00;99.90;;;;;;5019412;28;20064;-64
2023/08/13 09:03:22;;;;;;;10.13;2.60;;;21.20;99.90;;;;;;5004441;28;20081;-64
2023/08/13 09:05:48;;;;;;;10.57;2.95;;;21.40;99.90;;;;;;5022186;28;20063;-64
2023/08/13 09:08:14;;;;;;;8.85;2.83;;;21.50;99.90;;;;;;5024814;28;20037;-64
2023/08/13 09:10:43;;;;;;;10.90;2.72;;;21.60;99.90;;;;;;5020729;28;20041;-64
2023/08/13 09:13:09;;;;;;;6.97;2.72;;;21.80;99.90;;;;;;5020797;28;20267;-64
2023/08/13 09:15:44;;;;;;;;;;;21.90;99.90;;;;;;5025251;28;20460;-65
2023/08/13 09:18:10;;;;;;;;;;;22.00;99.90;;;;;;5025640;28;20433;-64
2023/08/13 09:20:46;;;;;;;;;;;22.10;99.90;;;;;;5010476;28;19944;-64
2023/08/13 09:23:25;;;;;;;8.00;2.42;;;22.30;99.90;;;;;;5029088;28;19975;-64
2023/08/13 09:25:55;;;;;;;7.65;2.17;;;22.40;99.90;;;;;;5035263;28;20441;-64
2023/08/13 09:28:21;;;;;;;9.30;2.15;;;22.60;99.90;;;;;;5032879;28;20098;-64
2023/08/13 09:30:47;;;;;;;5.28;2.15;;;22.70;99.90;;;;;;5035370;28;20045;-64
2023/08/13 09:33:15;;;;;;;8.52;2.40;;;22.80;99.90;;;;;;5026719;28;20038;-65
2023/08/13 09:35:42;;;;;;;6.85;2.40;;;22.90;99.90;;;;;;5019699;28;20420;-64
2023/08/13 09:38:08;;;;;;;7.32;2.17;;;23.00;99.90;;;;;;5028417;28;20064;-64
2023/08/13 09:40:35;;;;;;;5.40;1.95;;;23.10;99.90;;;;;;5025431;28;20041;-64
2023/08/13 09:43:09;;;;;;;11.02;2.47;;;23.10;99.90;;;;;;5032891;28;20038;-64
2023/08/13 09:45:35;;;;;;;8.85;2.20;;;23.10;99.90;;;;;;5032291;28;20045;-64
2023/08/13 09:48:05;;;;;;;4.90;2.17;;;23.20;99.90;;;;;;5028878;28;20052;-64
2023/08/13 09:50:39;;;;;;;6.47;2.03;;;23.30;99.90;;;;;;5038263;28;20045;-64
2023/08/13 09:53:08;;;;;;;6.20;1.88;;;23.50;99.90;;;;;;5031819;28;20119;-64
2023/08/13 09:55:39;;;;;;;7.35;1.80;;;23.60;99.90;;;;;;5029399;28;20042;-64
2023/08/13 09:58:08;;;;;;;6.85;2.00;;;23.60;99.90;;;;;;5037505;28;20112;-64
2023/08/13 10:00:34;;;;;;;6.72;1.80;;;23.60;99.90;;;;;;5035617;28;20138;-64
2023/08/13 10:03:01;;;;;;;3.42;1.38;;;23.50;99.90;;;;;;5055606;22;20037;-61
2023/08/13 10:05:29;;;;;;;4.97;1.38;;;23.50;99.90;;;;;;5029684;28;20483;-61
2023/08/13 10:07:56;;;;;;;4.50;1.60;;;23.30;99.90;;;;;;5037441;28;20048;-61
2023/08/13 10:10:23;;;;;;;5.70;1.70;;;23.00;99.90;;;;;;5040630;28;20044;-61
2023/08/13 10:12:49;;;;;;;4.30;1.40;;;22.70;99.90;;;;;;5033456;28;20120;-61
2023/08/13 10:15:15;;;;;;;5.28;1.83;;;22.50;99.90;;;;;;5027754;28;20467;-62
2023/08/13 10:17:44;;;;;;;6.88;1.80;;;22.40;99.90;;;;;;5030130;28;20501;-62
2023/08/13 10:20:10;;;;;;;5.03;1.52;;;22.30;99.90;;;;;;5030066;28;20121;-61
2023/08/13 10:22:37;;;;;;;3.95;1.40;;;22.10;99.90;;;;;;5034697;28;20132;-62
2023/08/13 10:25:06;;;;;;;4.25;1.60;;;22.20;99.90;;;;;;5024958;28;20034;-62
2023/08/13 10:27:36;;;;;;;5.13;1.52;;;22.20;99.90;;;;;;5037700;28;20029;-62
2023/08/13 10:30:08;;;;;;;6.40;1.67;;;22.30;99.90;;;;;;5043663;28;20038;-62
2023/08/13 10:32:56;;;;;;;5.68;1.50;;;22.20;99.90;;;;;;5006172;28;20532;-62
2023/08/13 10:35:24;;;;;;;4.70;1.35;;;22.20;99.90;;;;;;5030082;28;20037;-63
2023/08/13 10:37:51;;;;;;;5.43;1.60;;;22.10;99.90;;;;;;5034462;28;20098;-63
2023/08/13 10:40:19;;;;;;;6.40;1.45;;;22.00;99.90;;;;;;5031366;28;20056;-61
2023/08/13 10:42:46;;;;;;;5.40;1.35;;;22.10;99.90;;;;;;5041143;28;20041;-62
2023/08/13 10:45:17;;;;;;;5.53;1.42;;;22.20;99.90;;;;;;5035729;28;20049;-61
2023/08/13 10:47:48;;;;;;;5.53;1.40;;;22.20;99.90;;;;;;5038051;28;20029;-62
2023/08/13 10:50:19;;;;;;;14.65;1.83;;;22.30;99.90;;;;;;5042171;28;20506;-62
2023/08/13 10:52:54;;;;;;;5.18;1.73;;;22.40;99.90;;;;;;5030375;28;20037;-61
2023/08/13 10:55:24;;;;;;;4.90;1.70;;;22.50;99.90;;;;;;5040920;28;20061;-62
2023/08/13 10:57:53;;;;;;;3.55;1.50;;;22.50;99.90;;;;;;5026697;28;20033;-61
2023/08/13 11:00:21;;;;;;;6.38;1.70;;;22.40;99.90;;;;;;5029685;28;20058;-62
2023/08/13 11:02:51;;;;;;;5.68;1.38;;;22.30;99.90;;;;;;5033951;28;20036;-62
2023/08/13 11:05:17;;;;;;;5.03;1.67;;;22.40;99.90;;;;;;5019653;28;20095;-61
2023/08/13 11:07:43;;;;;;;5.78;1.80;;;22.40;99.90;;;;;;5028616;28;20046;-62
2023/08/13 11:10:16;;;;;;;4.95;1.50;;;22.50;99.90;;;;;;5015276;28;20088;-62
2023/08/13 11:12:43;;;;;;;7.32;2.08;;;22.50;99.90;;;;;;5033538;28;20052;-62
2023/08/13 11:15:09;;;;;;;5.43;1.70;;;22.60;99.90;;;;;;5027444;28;20034;-62
2023/08/13 11:17:35;;;;;;;9.20;2.00;;;22.60;99.90;;;;;;5028653;28;20065;-62
2023/08/13 11:20:05;;;;;;;7.97;1.95;;;22.70;99.90;;;;;;5036934;28;20438;-62
2023/08/13 11:22:31;;;;;;;7.90;1.92;;;22.70;99.90;;;;;;5026619;28;20042;-62
2023/08/13 11:24:57;;;;;;;7.57;2.13;;;22.70;99.90;;;;;;5028116;28;20072;-62
2023/08/13 11:27:28;;;;;;;4.82;2.08;;;22.60;99.90;;;;;;5030407;28;20060;-62
2023/08/13 11:29:53;;;;;;;7.13;2.15;;;22.50;99.90;;;;;;5028200;28;20049;-62
2023/08/13 11:32:19;;;;;;;5.22;1.85;;;22.20;99.90;;;;;;5031765;28;20084;-62
2023/08/13 11:34:45;;;;;;;6.47;2.30;;;22.10;99.90;;;;;;5031438;28;20395;-62
2023/08/13 11:37:12;;;;;;;7.78;2.22;;;21.90;99.90;;;;;;5009376;28;20041;-62
2023/08/13 11:39:38;;;;;;;7.20;2.20;;;21.80;99.90;;;;;;5027982;28;20051;-62
2023/08/13 11:42:08;;;;;;;7.95;2.20;;;21.60;99.90;;;;;;5035154;28;20045;-62
2023/08/13 11:44:35;;;;;;;6.93;2.20;;;21.50;99.90;;;;;;5016578;28;20057;-62
2023/08/13 11:47:04;;;;;;;6.82;2.20;;;21.40;99.90;;;;;;5030561;28;20041;-62
2023/08/13 11:49:30;;;;;;;7.43;2.53;;;21.20;99.90;;;;;;5031235;28;20069;-62
2023/08/13 11:51:57;;;;;;;7.75;2.42;;;21.20;99.90;;;;;;5031843;28;20081;-62
2023/08/13 11:54:23;;;;;;;8.68;2.33;;;21.10;99.90;;;;;;5023065;28;20071;-62
2023/08/13 11:56:52;;;;;;;8.27;2.58;;;21.00;99.90;;;;;;5024935;28;20324;-62
2023/08/13 11:59:23;;;;;;;10.15;2.55;;;21.00;99.90;;;;;;5032039;28;20221;-62
2023/08/13 12:01:56;;;;;;;8.57;2.30;;;20.90;99.90;;;;;;5027738;28;20056;-62
2023/08/13 12:04:22;;;;;;;11.93;2.20;;;20.90;99.90;;;;;;5030720;28;20156;-62
2023/08/13 12:06:51;;;;;;;11.20;2.70;;;21.00;99.90;;;;;;5037720;28;20100;-62
2023/08/13 12:09:17;;;;;;;9.88;3.20;;;21.00;99.90;;;;;;5025822;28;20030;-62
2023/08/13 12:11:43;;;;;;;8.45;2.50;;;21.20;99.90;;;;;;5030868;28;20046;-62
2023/08/13 12:14:09;;;;;;;10.70;2.90;;;21.40;99.90;;;;;;5024240;28;20456;-62
2023/08/13 12:16:35;;;;;;;9.00;2.78;;;21.50;99.90;;;;;;5020001;28;20034;-62
2023/08/13 12:19:03;;;;;;;8.23;2.70;;;21.80;99.90;;;;;;5027162;28;20034;-63
2023/08/13 12:21:28;;;;;;;11.70;2.78;;;22.00;99.90;;;;;;5024719;28;20397;-62
2023/08/13 12:23:54;;;;;;;7.95;2.53;;;22.20;99.90;;;;;;5036904;28;20119;-63
2023/08/13 12:26:21;;;;;;;8.45;2.47;;;22.20;99.90;;;;;;5043391;28;20487;-63
2023/08/13 12:28:50;;;;;;;6.65;2.53;;;22.30;99.90;;;;;;5013220;28;20048;-63
2023/08/13 12:31:17;;;;;;;7.63;2.40;;;22.40;99.90;;;;;;5016928;28;20080;-62
2023/08/13 12:33:43;;;;;;;9.60;2.58;;;22.50;99.90;;;;;;5014301;28;20052;-62
2023/08/13 12:36:09;;;;;;;6.97;2.28;;;22.60;99.90;;;;;;5035448;28;20033;-62
2023/08/13 12:38:36;;;;;;;7.10;2.47;;;22.60;99.90;;;;;;5030256;28;20044;-62